Time;durP1;ratioP1;P1;durP2;ratioP2;P2;SDS_P1;SDS_P2;PMS_P1;PMS_P2;Temp;Humidity;BMP_temperature;BMP_pressure;BME280_temperature;BME280_humidity;BME280_pressure;Samples;Min_cycle;Max_cycle;Signal;HPM_P1;HPM_P2
2022/01/29 00:00:55;;;;;;;20.75;19.20;;;9.10;81.90;;;;;;4954575;28;20522;-81
2022/01/29 00:03:22;;;;;;;19.15;18.17;;;9.10;81.90;;;;;;4954381;29;20040;-81
2022/01/29 00:05:49;;;;;;;20.80;19.58;;;9.10;81.90;;;;;;4940236;29;20445;-81
2022/01/29 00:08:16;;;;;;;19.13;18.08;;;9.10;81.90;;;;;;4967827;28;20046;-80
2022/01/29 00:10:44;;;;;;;20.15;18.83;;;9.10;81.90;;;;;;4949645;29;20482;-81
2022/01/29 00:13:10;;;;;;;19.30;18.30;;;9.10;81.90;;;;;;4954785;29;20035;-81
2022/01/29 00:15:36;;;;;;;18.42;17.52;;;9.10;81.90;;;;;;4954790;28;20411;-81
2022/01/29 00:18:02;;;;;;;18.25;17.35;;;9.10;81.90;;;;;;4949774;29;20027;-81
2022/01/29 00:20:28;;;;;;;19.52;18.52;;;9.10;81.90;;;;;;4953422;29;20055;-81
2022/01/29 00:22:54;;;;;;;19.10;18.10;;;9.10;81.90;;;;;;4942855;29;20036;-81
2022/01/29 00:25:20;;;;;;;18.45;17.48;;;9.10;81.90;;;;;;4942294;29;20062;-80
2022/01/29 00:27:46;;;;;;;18.67;17.77;;;9.10;81.90;;;;;;4947731;29;20027;-81
2022/01/29 00:30:18;;;;;;;18.73;17.83;;;9.10;81.80;;;;;;4968152;28;20031;-80
2022/01/29 00:32:44;;;;;;;19.58;18.67;;;9.10;81.90;;;;;;4950408;29;20057;-80
2022/01/29 00:35:10;;;;;;;20.83;19.83;;;9.10;81.90;;;;;;4940282;29;20399;-80
2022/01/29 00:37:36;;;;;;;18.77;17.88;;;9.10;81.90;;;;;;4957592;28;20042;-80
2022/01/29 00:40:03;;;;;;;20.25;18.92;;;9.10;81.90;;;;;;4961853;28;20047;-81
2022/01/29 00:42:29;;;;;;;19.60;18.60;;;9.10;81.90;;;;;;4954977;28;20039;-81
2022/01/29 00:44:55;;;;;;;20.00;18.80;;;9.10;82.00;;;;;;4968995;28;20042;-80
2022/01/29 00:47:21;;;;;;;20.48;19.27;;;9.10;81.90;;;;;;4954080;28;20051;-80
2022/01/29 00:49:48;;;;;;;19.52;18.55;;;9.10;81.90;;;;;;4933920;29;20043;-81
2022/01/29 00:52:14;;;;;;;18.88;17.98;;;9.10;81.90;;;;;;4930462;29;20040;-80
2022/01/29 00:54:40;;;;;;;19.85;18.58;;;9.10;81.90;;;;;;4944077;29;20046;-80
2022/01/29 00:57:06;;;;;;;19.33;18.42;;;9.10;82.20;;;;;;4953467;29;20035;-81
2022/01/29 00:59:33;;;;;;;19.90;18.83;;;9.10;81.90;;;;;;4935944;29;20051;-80
2022/01/29 01:02:02;;;;;;;21.23;20.13;;;9.10;82.00;;;;;;4951084;28;20050;-80
2022/01/29 01:04:28;;;;;;;19.13;18.13;;;9.10;81.90;;;;;;4951381;29;20054;-80
2022/01/29 01:06:55;;;;;;;20.23;18.80;;;9.10;82.00;;;;;;4956193;28;20039;-80
2022/01/29 01:09:21;;;;;;;18.67;17.77;;;9.10;81.90;;;;;;4963380;28;20039;-81
2022/01/29 01:11:47;;;;;;;21.08;19.85;;;9.10;81.90;;;;;;4953754;28;20035;-80
2022/01/29 01:14:13;;;;;;;20.73;19.63;;;9.10;81.90;;;;;;4934281;29;20509;-80
2022/01/29 01:16:39;;;;;;;20.90;19.80;;;9.10;81.90;;;;;;4951414;28;20043;-80
2022/01/29 01:19:05;;;;;;;21.13;19.98;;;9.10;81.90;;;;;;4964007;28;20102;-80
2022/01/29 01:21:31;;;;;;;20.30;19.30;;;9.20;82.00;;;;;;4953996;29;20054;-80
2022/01/29 01:23:57;;;;;;;22.63;20.95;;;9.10;81.90;;;;;;4951103;29;20039;-80
2022/01/29 01:26:23;;;;;;;20.20;19.20;;;9.10;81.90;;;;;;4938954;29;20043;-80
2022/01/29 01:28:49;;;;;;;20.77;19.67;;;9.10;81.90;;;;;;4933987;29;20051;-80
2022/01/29 01:31:15;;;;;;;20.10;19.10;;;9.10;81.90;;;;;;4945544;29;20051;-80
2022/01/29 01:33:43;;;;;;;20.38;19.30;;;9.20;81.90;;;;;;4963146;28;20044;-80
2022/01/29 01:36:09;;;;;;;20.85;19.85;;;9.10;81.90;;;;;;4961593;28;20031;-80
2022/01/29 01:38:42;;;;;;;19.95;18.90;;;9.20;81.90;;;;;;4938266;29;20031;-80
2022/01/29 01:41:13;;;;;;;21.20;20.13;;;9.20;81.90;;;;;;4952349;29;20027;-80
2022/01/29 01:43:39;;;;;;;19.40;18.50;;;9.10;81.90;;;;;;4953598;29;20051;-80
2022/01/29 01:46:05;;;;;;;19.75;18.75;;;9.10;81.90;;;;;;4951416;28;20035;-80
2022/01/29 01:48:31;;;;;;;19.73;18.73;;;9.10;81.90;;;;;;4966446;28;20038;-81
2022/01/29 01:50:57;;;;;;;19.13;18.23;;;9.10;81.90;;;;;;4954427;28;20478;-81
2022/01/29 01:53:24;;;;;;;18.88;17.98;;;9.20;82.00;;;;;;4937158;29;20383;-81
2022/01/29 01:55:50;;;;;;;19.85;18.63;;;9.10;81.90;;;;;;4952433;29;20039;-80
2022/01/29 01:58:17;;;;;;;20.10;19.00;;;9.10;81.90;;;;;;4964348;28;20395;-81
2022/01/29 02:00:43;;;;;;;20.73;19.63;;;9.10;82.70;;;;;;4952704;28;20036;-80
2022/01/29 02:03:10;;;;;;;17.90;17.10;;;9.10;81.90;;;;;;4951845;29;20391;-81
2022/01/29 02:05:36;;;;;;;19.13;18.13;;;9.10;81.90;;;;;;4951112;29;20545;-81
2022/01/29 02:08:02;;;;;;;19.13;18.23;;;9.10;81.90;;;;;;4963409;28;20030;-80
2022/01/29 02:10:30;;;;;;;21.20;20.13;;;9.10;81.90;;;;;;4953780;28;20047;-81
2022/01/29 02:13:00;;;;;;;20.05;18.95;;;9.10;81.90;;;;;;4952307;28;20054;-81
2022/01/29 02:15:26;;;;;;;19.97;18.97;;;9.10;81.90;;;;;;4951790;28;20047;-80
2022/01/29 02:17:52;;;;;;;19.75;18.75;;;9.10;81.90;;;;;;4963736;28;20047;-81
2022/01/29 02:20:20;;;;;;;20.35;19.35;;;9.10;81.90;;;;;;4954082;29;20031;-80
2022/01/29 02:22:46;;;;;;;18.88;17.88;;;9.10;81.90;;;;;;4951084;28;20038;-81
2022/01/29 02:25:31;;;;;;;19.17;18.08;;;9.10;82.00;;;;;;4951855;29;20051;-80
2022/01/29 02:28:04;;;;;;;19.30;18.20;;;9.10;82.00;;;;;;4961044;28;20031;-81
2022/01/29 02:30:33;;;;;;;20.15;19.15;;;9.10;82.00;;;;;;4956129;28;20038;-80
2022/01/29 02:32:59;;;;;;;20.15;19.10;;;9.10;81.90;;;;;;4954134;28;20031;-81
2022/01/29 02:35:26;;;;;;;19.90;18.80;;;9.10;81.90;;;;;;4949905;29;20023;-81
2022/01/29 02:37:53;;;;;;;19.17;18.27;;;9.10;81.90;;;;;;4950747;29;20039;-80
2022/01/29 02:40:19;;;;;;;18.50;17.63;;;9.10;81.90;;;;;;4952002;29;20397;-81
2022/01/29 02:42:46;;;;;;;18.45;17.55;;;9.10;81.90;;;;;;4953169;29;20506;-80
2022/01/29 02:45:12;;;;;;;18.75;17.70;;;9.10;81.90;;;;;;4944192;28;20062;-80
2022/01/29 02:47:38;;;;;;;20.48;19.33;;;9.20;81.90;;;;;;4942241;29;20032;-81
2022/01/29 02:50:04;;;;;;;18.90;18.00;;;9.10;81.80;;;;;;4954054;29;20070;-81
2022/01/29 02:52:30;;;;;;;19.08;18.17;;;9.20;81.90;;;;;;4948304;29;20047;-81
2022/01/29 02:54:56;;;;;;;21.35;20.15;;;9.20;81.90;;;;;;4956957;28;20478;-80
2022/01/29 02:57:22;;;;;;;19.90;18.77;;;9.20;81.90;;;;;;4941949;29;20035;-81
2022/01/29 02:59:51;;;;;;;21.67;20.02;;;9.20;81.90;;;;;;4938723;29;20470;-80
2022/01/29 03:02:17;;;;;;;20.70;19.55;;;9.20;81.80;;;;;;4963294;28;20120;-81
2022/01/29 03:04:44;;;;;;;21.17;20.10;;;9.20;81.90;;;;;;4956883;28;20047;-80
2022/01/29 03:07:10;;;;;;;20.40;19.30;;;9.20;81.90;;;;;;4946856;28;20391;-80
2022/01/29 03:09:36;;;;;;;19.88;18.98;;;9.20;81.80;;;;;;4945419;29;20087;-80
2022/01/29 03:12:02;;;;;;;20.88;19.77;;;9.20;81.90;;;;;;4943389;29;20056;-80
2022/01/29 03:14:28;;;;;;;20.33;19.33;;;9.20;81.90;;;;;;4949772;29;20058;-80
2022/01/29 03:16:56;;;;;;;20.33;19.33;;;9.20;81.80;;;;;;4946827;28;20035;-80
2022/01/29 03:19:22;;;;;;;20.73;19.55;;;9.20;81.80;;;;;;4947503;29;20059;-80
2022/01/29 03:21:48;;;;;;;21.77;20.58;;;9.20;81.90;;;;;;4948391;29;20493;-81
2022/01/29 03:24:14;;;;;;;22.27;20.85;;;9.20;81.80;;;;;;4948370;29;20039;-80
2022/01/29 03:26:40;;;;;;;19.70;18.80;;;9.20;81.80;;;;;;4949238;28;20505;-81
2022/01/29 03:29:07;;;;;;;21.83;20.80;;;9.20;81.80;;;;;;4953723;29;20035;-80
2022/01/29 03:31:33;;;;;;;21.60;20.30;;;9.20;81.80;;;;;;4950784;28;20039;-80
2022/01/29 03:33:59;;;;;;;20.67;19.67;;;9.20;82.60;;;;;;4952325;29;20032;-80
2022/01/29 03:36:26;;;;;;;20.20;19.17;;;9.20;81.80;;;;;;4950092;29;20035;-81
2022/01/29 03:38:52;;;;;;;20.90;19.83;;;9.20;81.90;;;;;;4941362;29;20031;-80
2022/01/29 03:41:18;;;;;;;20.98;19.98;;;9.20;81.80;;;;;;4954627;29;20050;-80
2022/01/29 03:43:47;;;;;;;19.55;18.65;;;9.20;81.80;;;;;;4943840;29;20039;-80
2022/01/29 03:46:13;;;;;;;20.52;19.00;;;9.20;81.90;;;;;;4959579;28;20046;-80
2022/01/29 03:48:40;;;;;;;20.25;19.35;;;9.20;81.80;;;;;;4951194;29;20028;-80
2022/01/29 03:51:06;;;;;;;21.88;20.42;;;9.20;81.80;;;;;;4954598;29;20055;-80
2022/01/29 03:53:32;;;;;;;19.20;18.30;;;9.20;81.90;;;;;;4943023;29;20046;-80
2022/01/29 03:55:58;;;;;;;20.38;19.40;;;9.20;81.80;;;;;;4938248;29;20050;-80
2022/01/29 03:58:24;;;;;;;19.77;18.88;;;9.20;81.90;;;;;;4953509;29;20031;-80
2022/01/29 04:00:51;;;;;;;21.27;20.17;;;9.20;81.90;;;;;;4951944;28;20043;-80
2022/01/29 04:03:17;;;;;;;19.77;18.88;;;9.20;81.90;;;;;;4948924;29;20031;-80
2022/01/29 04:05:43;;;;;;;20.77;19.83;;;9.20;81.90;;;;;;4952152;29;20039;-80
2022/01/29 04:08:17;;;;;;;19.90;19.00;;;9.20;81.90;;;;;;4967020;28;20489;-80
2022/01/29 04:10:44;;;;;;;20.17;19.10;;;9.20;81.90;;;;;;4937986;28;20047;-81
2022/01/29 04:13:12;;;;;;;20.25;18.92;;;9.20;81.90;;;;;;4963910;28;20470;-81
2022/01/29 04:15:38;;;;;;;19.50;18.45;;;9.20;81.90;;;;;;4951278;28;20035;-80
2022/01/29 04:18:04;;;;;;;19.80;18.80;;;9.20;81.90;;;;;;4941654;29;20038;-80
2022/01/29 04:20:30;;;;;;;20.42;19.33;;;9.20;81.80;;;;;;4954270;29;20024;-80
2022/01/29 04:22:56;;;;;;;19.60;18.50;;;9.20;81.90;;;;;;4943765;29;20040;-80
2022/01/29 04:25:24;;;;;;;20.88;19.48;;;9.20;81.90;;;;;;4942949;29;20067;-80
2022/01/29 04:27:50;;;;;;;19.20;18.30;;;9.20;81.80;;;;;;4961883;28;20027;-80
2022/01/29 04:30:43;;;;;;;19.50;18.60;;;9.20;81.80;;;;;;4960416;28;20425;-80
2022/01/29 04:35:49;;;;;;;18.98;17.98;;;9.20;81.80;;;;;;4947953;28;20042;-80
2022/01/29 04:38:15;;;;;;;19.48;18.58;;;9.20;81.80;;;;;;4955027;28;20035;-80
2022/01/29 04:40:42;;;;;;;19.27;18.35;;;9.20;81.90;;;;;;4959008;28;20046;-80
2022/01/29 04:43:08;;;;;;;18.98;18.08;;;9.20;81.90;;;;;;4958809;28;20489;-81
2022/01/29 04:45:34;;;;;;;20.33;19.33;;;9.20;81.90;;;;;;4944021;28;20050;-80
2022/01/29 04:48:00;;;;;;;21.13;20.00;;;9.20;81.90;;;;;;4947107;29;20054;-83
2022/01/29 04:50:26;;;;;;;21.05;19.77;;;9.20;81.90;;;;;;4964365;28;20497;-82
2022/01/29 04:52:52;;;;;;;19.77;18.88;;;9.10;81.90;;;;;;4945711;29;20058;-83
2022/01/29 04:55:18;;;;;;;20.58;19.58;;;9.10;81.90;;;;;;4959199;28;20039;-82
2022/01/29 04:57:45;;;;;;;20.17;18.90;;;9.20;82.00;;;;;;4951895;28;20030;-83
2022/01/29 05:00:12;;;;;;;21.27;20.10;;;9.20;82.00;;;;;;4950796;28;20042;-83
2022/01/29 05:02:38;;;;;;;21.38;20.10;;;9.20;81.90;;;;;;4952759;28;20034;-83
2022/01/29 05:05:05;;;;;;;22.33;21.23;;;9.20;82.00;;;;;;4952001;29;20397;-84
2022/01/29 05:07:31;;;;;;;22.05;20.85;;;9.20;81.90;;;;;;4949999;28;20043;-83
2022/01/29 05:09:57;;;;;;;21.08;19.88;;;9.20;81.90;;;;;;4964568;28;20470;-84
2022/01/29 05:12:29;;;;;;;21.05;20.05;;;9.20;82.00;;;;;;4951327;29;20046;-85
2022/01/29 05:28:06;;;;;;;21.40;20.00;;;9.20;81.90;;;;;;4951652;28;20054;-85
2022/01/29 05:30:32;;;;;;;19.50;18.50;;;9.20;81.90;;;;;;4947993;28;20494;-85
2022/01/29 05:32:59;;;;;;;19.50;18.55;;;9.20;81.90;;;;;;4951243;28;20043;-90
2022/01/29 05:35:25;;;;;;;18.42;17.40;;;9.20;82.00;;;;;;4952906;29;20470;-90
2022/01/29 05:37:52;;;;;;;19.95;18.65;;;9.20;82.00;;;;;;4951131;29;20031;-90
2022/01/29 05:40:18;;;;;;;18.77;17.77;;;9.10;81.90;;;;;;4949289;29;20039;-89
2022/01/29 05:42:44;;;;;;;19.08;18.13;;;9.20;82.00;;;;;;4950550;29;20402;-89
2022/01/29 05:45:10;;;;;;;18.50;17.60;;;9.20;82.00;;;;;;4949592;28;20050;-89
2022/01/29 05:47:36;;;;;;;18.20;17.13;;;9.20;82.00;;;;;;4951834;29;20051;-90
2022/01/29 05:50:03;;;;;;;18.33;17.42;;;9.20;82.00;;;;;;4946635;29;20045;-85
2022/01/29 05:52:29;;;;;;;18.77;17.88;;;9.20;82.00;;;;;;4950266;28;20062;-85
2022/01/29 05:54:56;;;;;;;19.88;18.77;;;9.20;82.00;;;;;;4950521;29;20031;-86
2022/01/29 05:57:22;;;;;;;18.10;17.27;;;9.20;82.00;;;;;;4965721;28;20046;-86
2022/01/29 05:59:48;;;;;;;18.45;17.55;;;9.20;82.00;;;;;;4949162;29;20050;-86
2022/01/29 06:02:14;;;;;;;17.92;17.13;;;9.20;82.10;;;;;;4953018;28;20066;-85
2022/01/29 06:04:40;;;;;;;18.20;17.30;;;9.20;82.10;;;;;;4947458;29;20035;-85
2022/01/29 06:07:06;;;;;;;19.00;17.92;;;9.20;82.10;;;;;;4956417;28;20046;-80
2022/01/29 06:09:32;;;;;;;18.67;17.67;;;9.20;82.10;;;;;;4950397;29;20034;-80
2022/01/29 06:11:58;;;;;;;19.10;18.10;;;9.20;82.10;;;;;;4932878;29;20032;-80
2022/01/29 06:14:24;;;;;;;19.17;18.02;;;9.20;82.10;;;;;;4951268;28;20052;-79
2022/01/29 06:16:50;;;;;;;19.33;18.33;;;9.20;82.10;;;;;;4931657;28;20040;-80
2022/01/29 06:19:16;;;;;;;19.27;18.33;;;9.20;82.20;;;;;;4948604;29;20039;-80
2022/01/29 06:21:42;;;;;;;19.35;18.35;;;9.20;82.10;;;;;;4953027;29;20486;-80
2022/01/29 06:24:09;;;;;;;18.58;17.67;;;9.20;82.10;;;;;;4951383;29;20039;-80
2022/01/29 06:26:35;;;;;;;20.30;19.20;;;9.20;82.10;;;;;;4966110;28;20417;-80
2022/01/29 06:29:01;;;;;;;18.92;17.92;;;9.20;82.10;;;;;;4953940;29;20394;-80
2022/01/29 06:31:27;;;;;;;19.65;18.45;;;9.20;82.10;;;;;;4952064;28;20050;-80
2022/01/29 06:33:53;;;;;;;20.65;19.45;;;9.20;82.20;;;;;;4952966;29;20031;-80
2022/01/29 06:36:20;;;;;;;19.98;18.77;;;9.20;82.20;;;;;;4963621;28;20046;-80
2022/01/29 06:38:46;;;;;;;20.02;18.60;;;9.20;82.20;;;;;;4967824;28;20031;-80
2022/01/29 06:41:12;;;;;;;19.45;18.35;;;9.20;82.20;;;;;;4951492;29;20034;-80
2022/01/29 06:43:38;;;;;;;18.33;17.42;;;9.20;82.20;;;;;;4938977;29;20040;-80
2022/01/29 06:46:04;;;;;;;19.65;18.48;;;9.20;82.30;;;;;;4946501;29;20521;-80
2022/01/29 06:48:30;;;;;;;20.38;19.10;;;9.20;82.20;;;;;;4952898;29;20031;-80
2022/01/29 06:50:56;;;;;;;19.98;18.70;;;9.20;82.20;;;;;;4952234;29;20445;-80
2022/01/29 06:53:22;;;;;;;18.77;17.77;;;9.20;82.20;;;;;;4952886;29;20043;-80
2022/01/29 06:55:48;;;;;;;18.60;17.70;;;9.20;82.20;;;;;;4950996;29;20027;-80
2022/01/29 06:58:14;;;;;;;18.23;17.38;;;9.20;82.30;;;;;;4967775;28;20035;-81
2022/01/29 07:00:41;;;;;;;19.05;17.88;;;9.20;82.30;;;;;;4947377;28;20505;-80
2022/01/29 07:03:07;;;;;;;18.45;17.55;;;9.20;82.30;;;;;;4946901;29;20046;-80
2022/01/29 07:05:33;;;;;;;17.75;16.95;;;9.20;82.30;;;;;;4943366;29;20402;-80
2022/01/29 07:07:59;;;;;;;19.60;18.50;;;9.20;82.30;;;;;;4963907;28;20039;-80
2022/01/29 07:10:26;;;;;;;18.25;17.35;;;9.30;82.30;;;;;;4949659;29;20036;-80
2022/01/29 07:12:52;;;;;;;19.38;18.13;;;9.20;82.30;;;;;;4965085;28;20038;-80
2022/01/29 07:15:18;;;;;;;18.55;17.42;;;9.20;83.10;;;;;;4953286;28;20031;-80
2022/01/29 07:17:44;;;;;;;18.52;17.55;;;9.30;82.30;;;;;;4956569;29;20031;-80
2022/01/29 07:20:11;;;;;;;19.73;18.48;;;9.20;82.30;;;;;;4954436;29;20030;-80
2022/01/29 07:22:38;;;;;;;19.13;17.88;;;9.30;82.30;;;;;;4955490;29;20485;-80
2022/01/29 07:25:04;;;;;;;19.17;17.90;;;9.30;82.30;;;;;;4954687;29;20034;-80
2022/01/29 07:27:30;;;;;;;19.08;17.95;;;9.30;82.50;;;;;;4970812;28;20058;-80
2022/01/29 07:29:57;;;;;;;17.95;16.95;;;9.30;82.40;;;;;;4939130;29;20023;-80
2022/01/29 07:32:23;;;;;;;18.13;17.13;;;9.30;82.40;;;;;;4954231;28;20047;-82
2022/01/29 07:34:49;;;;;;;17.58;16.67;;;9.20;82.30;;;;;;4937865;29;20050;-79
2022/01/29 07:37:15;;;;;;;19.00;18.02;;;9.20;82.40;;;;;;4955054;29;20046;-78
2022/01/29 07:39:41;;;;;;;19.63;18.35;;;9.20;82.40;;;;;;4953332;29;20038;-78
2022/01/29 07:42:07;;;;;;;19.98;18.55;;;9.30;82.50;;;;;;4959989;28;20487;-79
2022/01/29 07:44:33;;;;;;;17.98;17.15;;;9.30;82.50;;;;;;4955375;28;20062;-78
2022/01/29 07:46:59;;;;;;;18.55;17.65;;;9.30;82.50;;;;;;4957833;28;20043;-78
2022/01/29 07:49:26;;;;;;;18.75;17.85;;;9.30;82.50;;;;;;4951063;29;20027;-78
2022/01/29 07:51:52;;;;;;;18.08;17.23;;;9.30;82.40;;;;;;4952069;29;20043;-78
2022/01/29 07:54:18;;;;;;;19.35;18.45;;;9.30;82.50;;;;;;4953288;29;20046;-80
2022/01/29 07:56:44;;;;;;;18.60;17.70;;;9.30;82.50;;;;;;4952934;29;20046;-80
2022/01/29 07:59:10;;;;;;;19.15;18.15;;;9.40;82.50;;;;;;4955917;28;20490;-79
2022/01/29 08:01:36;;;;;;;20.63;19.40;;;9.40;82.50;;;;;;4953314;28;20031;-79
2022/01/29 08:04:02;;;;;;;19.38;18.33;;;9.40;82.50;;;;;;4952768;29;20043;-79
2022/01/29 08:06:31;;;;;;;19.10;18.00;;;9.40;82.50;;;;;;4967892;28;20043;-79
2022/01/29 08:08:57;;;;;;;18.92;18.02;;;9.40;82.50;;;;;;4966865;28;20031;-80
2022/01/29 08:11:23;;;;;;;19.02;18.02;;;9.40;82.50;;;;;;4955148;28;20050;-79
2022/01/29 08:13:50;;;;;;;19.05;18.02;;;9.40;83.20;;;;;;4953209;28;20023;-79
2022/01/29 08:16:16;;;;;;;18.50;17.60;;;9.50;82.50;;;;;;4952446;28;20036;-80
2022/01/29 08:18:43;;;;;;;18.95;17.95;;;9.50;82.50;;;;;;4951331;29;20031;-79
2022/01/29 08:21:14;;;;;;;19.42;18.38;;;9.50;82.50;;;;;;4936855;29;20027;-79
2022/01/29 08:23:40;;;;;;;;;;;9.50;82.40;;;;;;4954646;29;20043;-80
2022/01/29 08:26:06;;;;;;;19.05;18.13;;;9.50;82.40;;;;;;4966620;28;19922;-79
2022/01/29 08:28:33;;;;;;;19.05;18.15;;;9.50;82.30;;;;;;4951031;29;20027;-80
2022/01/29 08:30:59;;;;;;;19.27;18.27;;;9.50;82.30;;;;;;4951896;28;20402;-80
2022/01/29 08:33:25;;;;;;;18.85;17.95;;;9.50;82.30;;;;;;4956981;28;20035;-79
2022/01/29 08:35:52;;;;;;;17.95;17.05;;;9.60;82.40;;;;;;4951975;28;20034;-79
2022/01/29 08:38:19;;;;;;;18.95;18.05;;;9.50;82.40;;;;;;4950133;28;20043;-79
2022/01/29 08:40:45;;;;;;;18.42;17.52;;;9.60;82.50;;;;;;4950814;29;20035;-81
2022/01/29 08:43:11;;;;;;;17.95;16.90;;;9.60;82.50;;;;;;4951355;29;20390;-79
2022/01/29 08:45:37;;;;;;;18.40;17.50;;;9.60;82.40;;;;;;4951322;28;20039;-80
2022/01/29 08:48:04;;;;;;;18.50;17.63;;;9.70;82.50;;;;;;4952378;28;20042;-79
2022/01/29 08:50:30;;;;;;;18.60;17.45;;;9.70;82.60;;;;;;4952722;29;20056;-78
2022/01/29 08:52:56;;;;;;;19.38;18.38;;;9.70;83.20;;;;;;4962902;28;20028;-82
2022/01/29 08:55:22;;;;;;;18.88;17.88;;;9.70;82.50;;;;;;4963277;28;20031;-81
2022/01/29 08:57:49;;;;;;;19.15;18.15;;;9.70;82.50;;;;;;4933972;29;20497;-82
2022/01/29 09:00:15;;;;;;;18.52;17.45;;;9.70;82.50;;;;;;4947500;28;20058;-79
2022/01/29 09:02:41;;;;;;;18.88;17.60;;;9.80;82.50;;;;;;4952963;29;20402;-81
2022/01/29 09:05:08;;;;;;;18.45;17.55;;;9.80;82.50;;;;;;4953626;28;20058;-82
2022/01/29 09:07:34;;;;;;;19.15;18.15;;;9.80;82.50;;;;;;4951035;28;20058;-82
2022/01/29 09:10:00;;;;;;;18.95;18.05;;;9.80;82.50;;;;;;4965853;28;20533;-80
2022/01/29 09:12:26;;;;;;;17.75;16.95;;;9.80;82.50;;;;;;4952484;29;20121;-79
2022/01/29 09:14:52;;;;;;;18.45;17.58;;;9.80;82.50;;;;;;4951589;29;20106;-79
2022/01/29 09:17:18;;;;;;;17.70;16.90;;;9.90;82.60;;;;;;4917978;29;20028;-79
2022/01/29 09:19:44;;;;;;;18.80;17.90;;;9.90;82.60;;;;;;4965468;28;20465;-81
2022/01/29 09:22:10;;;;;;;19.50;18.38;;;9.90;82.50;;;;;;4949915;29;20027;-80
2022/01/29 09:24:37;;;;;;;17.88;16.98;;;9.90;82.50;;;;;;4949844;28;20375;-82
2022/01/29 09:27:03;;;;;;;18.17;17.38;;;10.00;82.60;;;;;;4948812;29;20036;-81
2022/01/29 09:29:29;;;;;;;17.80;16.98;;;10.00;82.70;;;;;;4951988;28;20059;-82
2022/01/29 09:31:56;;;;;;;19.42;18.42;;;10.10;82.60;;;;;;4950543;28;20312;-82
2022/01/29 09:34:22;;;;;;;18.25;17.45;;;10.10;82.50;;;;;;4948554;29;20038;-81
2022/01/29 09:36:48;;;;;;;18.73;17.83;;;10.20;82.40;;;;;;4947976;28;20031;-82
2022/01/29 09:39:15;;;;;;;17.70;16.90;;;10.20;82.40;;;;;;4947497;29;20051;-82
2022/01/29 09:41:44;;;;;;;18.20;17.35;;;10.20;82.40;;;;;;4933515;29;20035;-82
2022/01/29 09:44:11;;;;;;;18.52;17.55;;;10.20;82.40;;;;;;4949070;28;20421;-82
2022/01/29 09:46:37;;;;;;;19.10;18.10;;;10.20;82.50;;;;;;4947373;28;20044;-81
2022/01/29 09:49:03;;;;;;;18.85;17.95;;;10.20;82.50;;;;;;4931462;29;20046;-83
2022/01/29 09:51:30;;;;;;;19.30;18.10;;;10.20;82.50;;;;;;4939934;29;20062;-82
2022/01/29 09:53:56;;;;;;;17.70;16.88;;;10.20;82.60;;;;;;4935896;29;20054;-83
2022/01/29 09:56:22;;;;;;;18.95;18.05;;;10.30;82.70;;;;;;4950698;29;20035;-82
2022/01/29 09:58:49;;;;;;;18.75;17.85;;;10.30;82.70;;;;;;4931026;29;21812;-81
2022/01/29 10:01:16;;;;;;;18.27;17.48;;;10.30;82.70;;;;;;4934010;28;20537;-82
2022/01/29 10:03:42;;;;;;;17.95;17.15;;;10.30;82.70;;;;;;4947458;28;20397;-80
2022/01/29 10:06:15;;;;;;;17.58;16.77;;;10.40;82.60;;;;;;4948993;29;20039;-81
2022/01/29 10:08:44;;;;;;;18.77;17.88;;;10.40;82.60;;;;;;4950649;28;20038;-82
2022/01/29 10:11:21;;;;;;;18.15;17.35;;;10.50;82.50;;;;;;4950203;29;20039;-83
2022/01/29 10:13:48;;;;;;;18.42;17.58;;;10.50;82.50;;;;;;4948647;29;20367;-80
2022/01/29 10:16:20;;;;;;;18.02;17.23;;;10.50;82.40;;;;;;4954776;28;20031;-79
2022/01/29 10:19:11;;;;;;;18.08;17.27;;;10.60;82.50;;;;;;4951235;28;20027;-81
2022/01/29 10:21:41;;;;;;;18.00;17.20;;;10.60;82.50;;;;;;4947515;28;20098;-81
2022/01/29 10:24:09;;;;;;;17.75;16.95;;;10.70;82.40;;;;;;4932688;29;20031;-80
2022/01/29 10:26:45;;;;;;;19.33;18.15;;;10.80;82.40;;;;;;4932749;29;20437;-80
2022/01/29 10:29:16;;;;;;;19.50;18.60;;;10.80;82.40;;;;;;4949490;29;20507;-81
2022/01/29 10:31:50;;;;;;;18.77;17.88;;;10.80;82.30;;;;;;4948511;28;20058;-81
2022/01/29 10:34:26;;;;;;;18.90;18.00;;;10.80;82.40;;;;;;4947360;28;20032;-82
2022/01/29 10:37:12;;;;;;;18.60;17.70;;;10.70;82.30;;;;;;4938397;29;20047;-81
2022/01/29 10:39:39;;;;;;;18.80;17.90;;;10.70;82.50;;;;;;4951992;29;20036;-82
2022/01/29 10:42:16;;;;;;;18.95;18.05;;;10.80;82.50;;;;;;4919363;29;20040;-81
2022/01/29 10:44:44;;;;;;;17.80;17.00;;;10.80;82.60;;;;;;4952082;29;20050;-87
2022/01/29 10:47:11;;;;;;;18.60;17.70;;;10.80;82.60;;;;;;4954214;28;20062;-79
2022/01/29 10:49:44;;;;;;;18.33;17.45;;;10.80;82.60;;;;;;4967735;28;20035;-79
2022/01/29 10:52:14;;;;;;;17.80;17.00;;;10.80;82.50;;;;;;4953705;28;20046;-80
2022/01/29 10:54:42;;;;;;;17.60;16.80;;;10.90;82.50;;;;;;4959957;28;20028;-81
2022/01/29 10:57:08;;;;;;;18.77;17.88;;;10.90;82.50;;;;;;4935991;29;20039;-82
2022/01/29 10:59:49;;;;;;;19.27;18.35;;;10.80;82.50;;;;;;4949807;28;20509;-82
2022/01/29 11:02:15;;;;;;;18.95;18.05;;;10.90;82.60;;;;;;4952730;28;20513;-81
2022/01/29 11:04:42;;;;;;;19.60;18.50;;;10.90;82.60;;;;;;4955949;28;20031;-80
2022/01/29 11:07:15;;;;;;;18.85;17.95;;;10.90;82.60;;;;;;4960901;28;20053;-80
2022/01/29 11:09:45;;;;;;;19.25;18.20;;;10.90;82.60;;;;;;4967936;28;20479;-80
2022/01/29 11:12:12;;;;;;;19.42;18.42;;;10.90;82.60;;;;;;4962595;28;20517;-81
2022/01/29 11:14:38;;;;;;;18.10;17.30;;;10.90;82.60;;;;;;4944729;29;20031;-81
2022/01/29 11:17:04;;;;;;;18.25;17.45;;;10.90;82.60;;;;;;4949086;28;20414;-81
2022/01/29 11:19:32;;;;;;;18.75;17.85;;;10.90;82.60;;;;;;4948824;28;20035;-81
2022/01/29 11:22:01;;;;;;;18.98;18.08;;;10.90;82.70;;;;;;4950718;29;20035;-80
2022/01/29 11:24:27;;;;;;;19.13;18.23;;;10.90;82.70;;;;;;4950432;29;20034;-81
2022/01/29 11:26:53;;;;;;;19.58;18.67;;;10.90;82.80;;;;;;4970211;28;20039;-80
2022/01/29 11:29:28;;;;;;;18.95;18.05;;;10.90;82.70;;;;;;4950460;29;20031;-81
2022/01/29 11:32:22;;;;;;;20.08;19.08;;;11.00;82.70;;;;;;4949234;28;20039;-83
2022/01/29 11:35:15;;;;;;;19.20;18.30;;;11.00;82.70;;;;;;4954022;28;20023;-80
2022/01/29 11:37:53;;;;;;;18.67;17.77;;;11.00;82.60;;;;;;4942932;28;20040;-80
2022/01/29 11:40:28;;;;;;;18.85;17.95;;;11.00;82.60;;;;;;4949831;29;20043;-80
2022/01/29 11:43:10;;;;;;;19.92;19.02;;;11.00;82.70;;;;;;4935591;29;20043;-80
2022/01/29 11:45:54;;;;;;;19.83;18.92;;;10.90;82.60;;;;;;4951153;28;20493;-80
2022/01/29 11:48:33;;;;;;;20.13;19.23;;;10.90;82.60;;;;;;4943030;29;20063;-80
2022/01/29 11:51:00;;;;;;;19.58;18.67;;;10.90;82.60;;;;;;4942525;29;20039;-80
2022/01/29 11:53:48;;;;;;;20.40;19.50;;;10.90;82.60;;;;;;4951074;29;20042;-80
2022/01/29 11:56:27;;;;;;;20.88;19.88;;;10.90;82.80;;;;;;4968251;28;20039;-80
2022/01/29 11:59:17;;;;;;;19.42;18.52;;;10.90;82.80;;;;;;4948630;29;20060;-79
2022/01/29 12:01:44;;;;;;;20.00;18.80;;;10.90;82.80;;;;;;4953697;28;20043;-80
2022/01/29 12:04:10;;;;;;;19.05;18.15;;;11.00;82.80;;;;;;4951213;29;20043;-81
2022/01/29 12:06:42;;;;;;;20.85;19.85;;;11.00;82.60;;;;;;4953848;29;20401;-81
2022/01/29 12:09:14;;;;;;;20.23;19.23;;;11.00;82.50;;;;;;4944598;29;20034;-81
2022/01/29 12:11:41;;;;;;;20.63;19.67;;;11.10;82.60;;;;;;4953581;28;20046;-80
2022/01/29 12:14:10;;;;;;;19.73;18.83;;;11.00;82.50;;;;;;4954758;28;20524;-79
2022/01/29 12:17:02;;;;;;;19.75;18.85;;;11.10;82.60;;;;;;4946617;28;20034;-81
2022/01/29 12:19:40;;;;;;;19.40;18.50;;;11.00;82.60;;;;;;4951585;28;20039;-81
2022/01/29 12:22:17;;;;;;;19.20;18.30;;;11.10;82.60;;;;;;4948200;29;20023;-80
2022/01/29 12:24:55;;;;;;;19.73;18.83;;;11.10;82.60;;;;;;4951206;29;20032;-81
2022/01/29 12:27:21;;;;;;;19.70;18.73;;;11.00;82.50;;;;;;4950904;29;20051;-81
2022/01/29 12:29:48;;;;;;;19.55;18.20;;;11.00;82.50;;;;;;4958860;28;20039;-80
2022/01/29 12:32:14;;;;;;;20.13;19.23;;;11.00;82.50;;;;;;4954613;28;20375;-82
2022/01/29 12:34:40;;;;;;;19.35;18.45;;;11.00;82.60;;;;;;4960346;28;20028;-81
2022/01/29 12:37:14;;;;;;;19.77;18.88;;;11.00;82.50;;;;;;4934748;29;20039;-81
2022/01/29 12:39:44;;;;;;;19.58;18.63;;;11.10;82.70;;;;;;4944313;29;20027;-81
2022/01/29 12:44:56;;;;;;;19.70;18.77;;;11.00;82.50;;;;;;4946546;28;20411;-80
2022/01/29 12:47:26;;;;;;;20.38;19.48;;;11.10;82.60;;;;;;4964710;28;20074;-80
2022/01/29 12:49:53;;;;;;;19.50;18.40;;;11.00;82.50;;;;;;4950256;29;20036;-80
2022/01/29 12:52:19;;;;;;;19.08;18.17;;;11.10;82.50;;;;;;4948688;29;20517;-81
2022/01/29 12:54:58;;;;;;;18.58;17.67;;;11.10;82.60;;;;;;4936391;29;20245;-81
2022/01/29 12:57:25;;;;;;;18.85;17.95;;;11.10;82.60;;;;;;4951388;28;20502;-80